createdAt,value
2023-05-15T00:01:44.396Z,1.77
2023-05-15T00:04:48.579Z,1.05
2023-05-15T00:07:52.300Z,0.98
2023-05-15T00:11:01.566Z,1.10
2023-05-15T00:14:05.947Z,1.40
2023-05-15T00:17:11.127Z,1.10
2023-05-15T00:20:14.714Z,0.80
2023-05-15T00:23:18.398Z,1.10
2023-05-15T00:26:24.304Z,0.90
2023-05-15T00:29:28.586Z,1.37
2023-05-15T00:32:32.409Z,1.58
2023-05-15T00:35:36.320Z,0.80
2023-05-15T00:38:39.742Z,0.90
2023-05-15T00:41:46.773Z,0.90
2023-05-15T00:44:51.100Z,0.97
2023-05-15T00:47:55.757Z,1.00
2023-05-15T00:51:00.552Z,1.30
2023-05-15T00:54:05.168Z,1.10
2023-05-15T00:57:10.189Z,1.10
2023-05-15T01:00:17.725Z,1.17
2023-05-15T01:03:21.604Z,0.95
2023-05-15T01:06:25.355Z,1.20
2023-05-15T01:09:32.199Z,1.10
2023-05-15T01:12:38.794Z,0.73
2023-05-15T01:15:45.021Z,1.20
2023-05-15T01:18:48.212Z,0.88
2023-05-15T01:22:15.454Z,1.27
2023-05-15T01:25:36.480Z,1.60
2023-05-15T01:28:46.262Z,1.17
2023-05-15T01:31:55.622Z,1.63
2023-05-15T01:35:09.416Z,1.80
2023-05-15T01:38:30.502Z,2.25
2023-05-15T01:41:51.990Z,1.70
2023-05-15T01:44:57.939Z,1.10
2023-05-15T01:48:06.632Z,1.00
2023-05-15T01:51:14.456Z,0.90
2023-05-15T01:54:19.638Z,1.00
2023-05-15T01:57:25.624Z,0.88
2023-05-15T02:00:30.383Z,0.93
2023-05-15T02:03:35.891Z,0.97
2023-05-15T02:06:42.003Z,0.80
2023-05-15T02:09:46.591Z,0.90
2023-05-15T02:12:51.862Z,1.90
2023-05-15T02:15:58.072Z,1.10
2023-05-15T02:19:02.466Z,0.90
2023-05-15T02:22:06.452Z,0.85
2023-05-15T02:25:10.409Z,1.00
2023-05-15T02:28:28.705Z,0.80
2023-05-15T02:31:45.279Z,1.03
2023-05-15T02:35:36.109Z,0.93
2023-05-15T02:38:49.607Z,0.90
2023-05-15T02:41:54.828Z,1.00
2023-05-15T02:44:58.901Z,0.90
2023-05-15T02:48:04.294Z,1.00
2023-05-15T02:51:08.990Z,0.90
2023-05-15T02:54:13.359Z,0.90
2023-05-15T02:57:17.119Z,1.00
2023-05-15T03:00:21.139Z,1.50
2023-05-15T03:03:24.134Z,1.30
2023-05-15T03:06:27.549Z,1.03
2023-05-15T03:09:31.175Z,1.52
2023-05-15T03:12:35.748Z,1.02
2023-05-15T03:15:38.947Z,1.25
2023-05-15T03:18:43.144Z,1.17
2023-05-15T03:21:46.148Z,1.23
2023-05-15T03:24:49.845Z,1.33
2023-05-15T03:27:53.958Z,1.67
2023-05-15T03:30:57.656Z,1.30
2023-05-15T03:34:00.647Z,0.77
2023-05-15T03:37:03.988Z,1.60
2023-05-15T03:40:07.987Z,1.20
2023-05-15T03:43:14.618Z,1.25
2023-05-15T03:46:18.388Z,1.20
2023-05-15T03:49:21.693Z,1.87
2023-05-15T03:52:24.652Z,1.30
2023-05-15T03:55:29.591Z,0.90
2023-05-15T03:58:35.532Z,1.02
2023-05-15T04:01:50.989Z,1.10
2023-05-15T04:05:01.772Z,1.10
2023-05-15T04:08:05.278Z,1.53
2023-05-15T04:11:08.211Z,1.17
2023-05-15T04:14:11.890Z,1.80
2023-05-15T04:17:15.256Z,1.20
2023-05-15T04:20:20.686Z,1.20
2023-05-15T04:23:23.692Z,1.50
2023-05-15T04:26:27.483Z,2.10
2023-05-15T04:29:30.811Z,1.20
2023-05-15T04:32:36.976Z,1.40
2023-05-15T04:35:40.401Z,1.83
2023-05-15T04:38:44.102Z,1.63
2023-05-15T04:41:47.463Z,1.60
2023-05-15T04:44:51.656Z,1.30
2023-05-15T04:47:55.101Z,1.30
2023-05-15T04:50:58.066Z,1.30
2023-05-15T04:54:01.025Z,1.33
2023-05-15T04:57:04.236Z,1.52
2023-05-15T05:00:13.456Z,1.15
2023-05-15T05:03:16.922Z,1.15
2023-05-15T05:06:19.858Z,1.67
2023-05-15T05:09:22.849Z,1.00
2023-05-15T05:12:27.344Z,1.58
2023-05-15T05:15:32.288Z,1.60
2023-05-15T05:18:35.339Z,1.30
2023-05-15T05:21:38.693Z,1.20
2023-05-15T05:24:41.664Z,1.10
2023-05-15T05:27:44.961Z,1.42
2023-05-15T05:30:49.430Z,1.30
2023-05-15T05:33:53.358Z,1.45
2023-05-15T05:36:56.321Z,2.03
2023-05-15T05:39:59.725Z,1.47
2023-05-15T05:43:02.885Z,1.25
2023-05-15T05:46:05.961Z,1.40
2023-05-15T05:49:08.844Z,1.10
2023-05-15T05:52:11.838Z,1.20
2023-05-15T05:55:15.284Z,1.60
2023-05-15T05:58:25.526Z,1.60
2023-05-15T06:01:29.399Z,1.48
2023-05-15T06:04:34.774Z,1.50
2023-05-15T06:07:38.305Z,1.30
2023-05-15T06:10:42.924Z,1.57
2023-05-15T06:13:45.892Z,1.50
2023-05-15T06:16:49.260Z,1.55
2023-05-15T06:19:52.316Z,1.50
2023-05-15T06:22:55.333Z,1.80
2023-05-15T06:25:58.635Z,2.07
2023-05-15T06:29:01.685Z,1.50
2023-05-15T06:32:04.815Z,1.90
2023-05-15T06:35:08.878Z,1.80
2023-05-15T06:38:12.595Z,2.00
2023-05-15T06:41:15.523Z,1.93
2023-05-15T06:44:18.880Z,2.15
2023-05-15T06:47:22.770Z,1.70
2023-05-15T06:50:26.346Z,1.60
2023-05-15T06:53:31.151Z,1.93
2023-05-15T06:56:35.073Z,2.10
2023-05-15T06:59:38.046Z,2.28
2023-05-15T07:02:41.906Z,1.95
2023-05-15T07:05:45.876Z,2.10
2023-05-15T07:08:50.256Z,1.97
2023-05-15T07:11:53.331Z,1.60
2023-05-15T07:14:57.005Z,1.95
2023-05-15T07:18:00.960Z,1.70
2023-05-15T07:21:04.486Z,1.92
2023-05-15T07:24:08.433Z,1.80
2023-05-15T07:27:12.562Z,1.60
2023-05-15T07:30:15.924Z,2.05
2023-05-15T07:33:18.846Z,2.72
2023-05-15T07:36:21.816Z,2.53
2023-05-15T07:39:25.920Z,2.33
2023-05-15T07:42:29.557Z,2.27
2023-05-15T07:45:32.804Z,2.00
2023-05-15T07:48:36.065Z,1.92
2023-05-15T07:51:39.062Z,2.20
2023-05-15T07:54:44.591Z,2.23
2023-05-15T07:57:53.584Z,2.20
2023-05-15T08:00:56.894Z,1.88
2023-05-15T08:04:00.376Z,2.58
2023-05-15T08:07:04.392Z,1.75
2023-05-15T08:10:08.831Z,2.33
2023-05-15T08:13:11.871Z,1.80
2023-05-15T08:16:15.557Z,3.58
2023-05-15T08:19:39.171Z,2.70
2023-05-15T08:22:42.518Z,2.22
2023-05-15T08:25:48.273Z,1.93
2023-05-15T08:28:53.200Z,2.00
2023-05-15T08:31:56.868Z,2.10
2023-05-15T08:35:00.145Z,2.17
2023-05-15T08:38:04.622Z,2.63
2023-05-15T08:41:40.745Z,2.40
2023-05-15T08:44:45.294Z,2.00
2023-05-15T08:47:48.896Z,2.00
2023-05-15T08:50:53.366Z,2.20
2023-05-15T08:53:57.435Z,1.90
2023-05-15T08:57:01.914Z,1.70
2023-05-15T09:00:09.883Z,13.57
2023-05-15T09:03:17.121Z,4.60
2023-05-15T09:06:21.432Z,2.63
2023-05-15T09:09:25.811Z,1.95
2023-05-15T09:12:29.402Z,2.10
2023-05-15T09:15:33.473Z,1.87
2023-05-15T09:18:37.082Z,1.73
2023-05-15T09:21:40.881Z,1.75
2023-05-15T09:24:45.053Z,1.63
2023-05-15T09:27:48.280Z,1.60
2023-05-15T09:30:51.478Z,1.87
2023-05-15T09:34:02.216Z,2.30
2023-05-15T09:37:08.552Z,1.48
2023-05-15T09:40:12.622Z,1.60
2023-05-15T09:43:17.160Z,1.70
2023-05-15T09:46:21.114Z,1.40
2023-05-15T09:49:24.576Z,1.40
2023-05-15T09:52:29.699Z,2.08
2023-05-15T09:55:36.964Z,2.05
2023-05-15T09:58:55.779Z,3.30
2023-05-15T10:01:59.639Z,3.30
2023-05-15T10:05:03.514Z,2.97
2023-05-15T10:08:07.281Z,2.38
2023-05-15T10:11:10.341Z,2.92
2023-05-15T10:14:15.132Z,1.50
2023-05-15T10:17:20.967Z,3.23
2023-05-15T10:20:26.870Z,2.00
2023-05-15T10:23:32.126Z,2.35
2023-05-15T10:26:40.684Z,2.28
2023-05-15T10:29:44.228Z,2.20
2023-05-15T10:32:50.640Z,1.90
2023-05-15T10:35:55.965Z,1.70
2023-05-15T10:39:02.921Z,1.60
2023-05-15T10:42:07.324Z,1.35
2023-05-15T10:45:11.342Z,1.30
2023-05-15T10:48:16.395Z,2.50
2023-05-15T10:51:25.904Z,1.75
2023-05-15T10:54:30.536Z,1.83
2023-05-15T10:57:34.595Z,1.38
2023-05-15T11:00:47.305Z,1.47
2023-05-15T11:03:51.921Z,1.80
2023-05-15T11:07:13.629Z,1.90
2023-05-15T11:10:29.768Z,1.70
2023-05-15T11:14:08.555Z,1.70
2023-05-15T11:17:13.787Z,2.17
2023-05-15T11:20:16.926Z,1.97
2023-05-15T11:23:24.279Z,1.90
2023-05-15T11:26:43.587Z,3.17
2023-05-15T11:30:06.267Z,6.00
2023-05-15T11:33:13.925Z,4.20
2023-05-15T11:36:19.425Z,3.30
2023-05-15T11:39:26.595Z,2.05
2023-05-15T11:42:30.404Z,2.03
2023-05-15T11:45:37.136Z,2.97
2023-05-15T11:48:51.305Z,2.90
2023-05-15T11:51:54.708Z,2.60
2023-05-15T11:55:00.176Z,3.20
2023-05-15T11:58:04.864Z,3.15
2023-05-15T12:01:12.886Z,4.45
2023-05-15T12:04:18.115Z,3.50
2023-05-15T12:07:22.085Z,3.93
2023-05-15T12:10:26.082Z,4.57
2023-05-15T12:13:30.539Z,5.63
2023-05-15T12:16:34.620Z,5.75
2023-05-15T12:19:39.683Z,5.90
2023-05-15T12:22:43.432Z,4.60
2023-05-15T12:25:48.548Z,5.00
2023-05-15T12:28:54.931Z,4.85
2023-05-15T12:31:59.191Z,6.60
2023-05-15T12:35:03.877Z,8.23
2023-05-15T12:38:08.244Z,7.50
2023-05-15T12:41:12.755Z,7.90
2023-05-15T12:44:18.830Z,7.57
2023-05-15T12:47:25.203Z,7.95
2023-05-15T12:50:31.889Z,6.90
2023-05-15T12:53:36.784Z,7.43
2023-05-15T12:56:41.767Z,7.35
2023-05-15T12:59:45.659Z,8.27
2023-05-15T13:02:59.813Z,7.70
2023-05-15T13:06:07.533Z,7.27
2023-05-15T13:09:11.319Z,8.10
2023-05-15T13:12:14.794Z,7.72
2023-05-15T13:15:41.703Z,7.90
2023-05-15T13:18:45.546Z,9.18
2023-05-15T13:21:51.258Z,19.27
2023-05-15T13:24:54.532Z,11.40
2023-05-15T13:28:02.902Z,14.02
2023-05-15T13:31:06.165Z,12.15
2023-05-15T13:34:09.781Z,11.25
2023-05-15T13:37:13.369Z,10.50
2023-05-15T13:40:16.851Z,8.37
2023-05-15T13:43:19.844Z,6.10
2023-05-15T13:46:22.796Z,5.32
2023-05-15T13:49:26.576Z,6.00
2023-05-15T13:52:30.212Z,5.30
2023-05-15T13:55:33.959Z,5.30
2023-05-15T13:58:37.152Z,5.30
2023-05-15T14:01:40.865Z,6.40
2023-05-15T14:04:44.344Z,8.73
2023-05-15T14:07:48.129Z,8.53
2023-05-15T14:10:51.239Z,7.37
2023-05-15T14:13:54.942Z,7.22
2023-05-15T14:16:58.131Z,8.32
2023-05-15T14:20:01.158Z,12.35
2023-05-15T14:23:04.541Z,11.30
2023-05-15T14:26:08.427Z,9.20
2023-05-15T14:29:12.888Z,9.57
2023-05-15T14:32:17.271Z,9.77
2023-05-15T14:35:21.347Z,12.82
2023-05-15T14:38:25.115Z,12.53
2023-05-15T14:41:29.555Z,11.67
2023-05-15T14:44:33.198Z,12.35
2023-05-15T14:47:37.270Z,14.73
2023-05-15T14:50:40.323Z,14.85
2023-05-15T14:53:45.099Z,13.47
2023-05-15T14:56:49.474Z,13.57
2023-05-15T14:59:53.208Z,17.00
2023-05-15T15:02:56.610Z,16.35
2023-05-15T15:06:00.488Z,15.95
2023-05-15T15:09:03.576Z,15.43
2023-05-15T15:12:07.215Z,18.77
2023-05-15T15:15:11.445Z,15.55
2023-05-15T15:18:15.504Z,22.45
2023-05-15T15:21:19.435Z,22.05
2023-05-15T15:24:22.764Z,18.27
2023-05-15T15:27:25.842Z,18.17
2023-05-15T15:30:28.839Z,16.88
2023-05-15T15:33:32.557Z,15.98
2023-05-15T15:36:39.447Z,16.15
2023-05-15T15:39:43.240Z,14.77
2023-05-15T15:42:46.354Z,13.77
2023-05-15T15:45:50.108Z,12.13
2023-05-15T15:48:54.463Z,10.43
2023-05-15T15:51:58.020Z,10.82
2023-05-15T15:55:01.084Z,11.50
2023-05-15T15:58:04.976Z,10.53
2023-05-15T16:01:09.118Z,9.68
2023-05-15T16:04:12.932Z,9.35
2023-05-15T16:07:17.130Z,9.30
2023-05-15T16:10:20.547Z,11.77
2023-05-15T16:13:24.746Z,14.10
2023-05-15T16:16:28.217Z,12.50
2023-05-15T16:19:32.918Z,14.98
2023-05-15T16:22:36.025Z,16.45
2023-05-15T16:25:39.969Z,19.27
2023-05-15T16:28:43.167Z,14.50
2023-05-15T16:31:47.784Z,16.83
2023-05-15T16:34:51.469Z,17.15
2023-05-15T16:37:55.624Z,15.02
2023-05-15T16:40:58.982Z,14.83
2023-05-15T16:44:03.176Z,14.00
2023-05-15T16:47:06.593Z,14.88
2023-05-15T16:50:11.136Z,10.63
2023-05-15T16:53:15.636Z,8.50
2023-05-15T16:56:19.803Z,10.17
2023-05-15T16:59:23.522Z,9.50
2023-05-15T17:02:27.636Z,9.75
2023-05-15T17:05:31.429Z,8.98
2023-05-15T17:08:35.543Z,9.35
2023-05-15T17:11:39.243Z,12.03
2023-05-15T17:14:43.296Z,11.77
2023-05-15T17:17:46.996Z,11.07
2023-05-15T17:20:51.115Z,7.53
2023-05-15T17:23:54.872Z,6.50
2023-05-15T17:26:59.084Z,6.57
2023-05-15T17:30:02.820Z,9.57
2023-05-15T17:33:06.728Z,7.57
2023-05-15T17:36:10.409Z,7.72
2023-05-15T17:39:15.273Z,6.40
2023-05-15T17:42:19.054Z,6.87
2023-05-15T17:45:23.345Z,13.77
2023-05-15T17:48:28.100Z,18.05
2023-05-15T17:51:31.549Z,15.27
2023-05-15T17:54:34.574Z,15.93
2023-05-15T17:57:38.728Z,15.70
2023-05-15T18:00:42.490Z,9.83
2023-05-15T18:03:46.760Z,8.38
2023-05-15T18:06:50.519Z,9.68
2023-05-15T18:09:54.342Z,10.13
2023-05-15T18:12:58.741Z,10.27
2023-05-15T18:16:02.709Z,8.03
2023-05-15T18:19:07.825Z,8.27
2023-05-15T18:22:12.387Z,6.72
2023-05-15T18:25:17.249Z,9.85
2023-05-15T18:28:22.273Z,9.80
2023-05-15T18:31:26.139Z,5.00
2023-05-15T18:34:29.100Z,3.47
2023-05-15T18:37:32.088Z,3.17
2023-05-15T18:40:36.023Z,3.25
2023-05-15T18:43:39.640Z,2.33
2023-05-15T18:46:43.944Z,3.40
2023-05-15T18:49:47.571Z,2.92
2023-05-15T18:52:51.995Z,2.65
2023-05-15T18:55:55.414Z,3.97
2023-05-15T18:58:59.982Z,9.43
2023-05-15T19:02:03.844Z,10.93
2023-05-15T19:05:08.721Z,7.18
2023-05-15T19:08:12.345Z,3.90
2023-05-15T19:11:16.711Z,5.53
2023-05-15T19:14:20.494Z,3.73
2023-05-15T19:17:25.311Z,4.80
2023-05-15T19:20:29.103Z,6.57
2023-05-15T19:23:33.201Z,9.50
2023-05-15T19:26:36.581Z,8.75
2023-05-15T19:29:42.760Z,9.30
2023-05-15T19:32:46.756Z,9.83
2023-05-15T19:35:50.581Z,9.93
2023-05-15T19:38:54.377Z,9.80
2023-05-15T19:41:59.134Z,9.98
2023-05-15T19:45:02.887Z,10.13
2023-05-15T19:48:06.780Z,9.40
2023-05-15T19:51:10.635Z,11.35
2023-05-15T19:54:16.408Z,10.45
2023-05-15T19:57:20.179Z,7.88
2023-05-15T20:00:24.198Z,6.07
2023-05-15T20:03:33.417Z,5.23
2023-05-15T20:06:37.936Z,3.88
2023-05-15T20:09:41.632Z,3.00
2023-05-15T20:12:46.946Z,3.13
2023-05-15T20:15:58.532Z,3.13
2023-05-15T20:19:01.742Z,2.57
2023-05-15T20:22:05.954Z,2.78
2023-05-15T20:25:10.586Z,2.20
2023-05-15T20:28:14.319Z,2.70
2023-05-15T20:31:17.881Z,2.90
2023-05-15T20:34:22.376Z,3.70
2023-05-15T20:37:28.206Z,2.92
2023-05-15T20:40:32.369Z,6.95
2023-05-15T20:43:36.549Z,9.57
2023-05-15T20:46:41.356Z,10.53
2023-05-15T20:49:45.179Z,12.70
2023-05-15T20:52:48.565Z,14.50
2023-05-15T20:55:52.283Z,15.30
2023-05-15T20:58:58.273Z,16.48
2023-05-15T21:02:03.735Z,16.50
2023-05-15T21:05:08.550Z,16.53
2023-05-15T21:08:12.463Z,16.67
2023-05-15T21:11:16.363Z,16.15
2023-05-15T21:14:19.398Z,17.52
2023-05-15T21:17:23.209Z,16.47
2023-05-15T21:20:27.917Z,17.67
2023-05-15T21:23:31.852Z,18.10
2023-05-15T21:26:37.285Z,17.42
2023-05-15T21:29:41.068Z,18.52
2023-05-15T21:32:44.836Z,18.17
2023-05-15T21:35:49.274Z,18.53
2023-05-15T21:38:53.328Z,19.95
2023-05-15T21:41:56.853Z,20.90
2023-05-15T21:45:01.127Z,19.60
2023-05-15T21:48:04.915Z,19.40
2023-05-15T21:51:09.298Z,18.67
2023-05-15T21:54:12.957Z,18.27
2023-05-15T21:57:16.347Z,20.15
2023-05-15T22:00:21.120Z,17.00
2023-05-15T22:03:25.028Z,18.00
2023-05-15T22:06:28.214Z,18.53
2023-05-15T22:09:32.031Z,16.42
2023-05-15T22:12:36.168Z,16.60
2023-05-15T22:15:40.429Z,17.98
2023-05-15T22:18:45.587Z,18.37
2023-05-15T22:21:49.526Z,17.37
2023-05-15T22:24:53.072Z,16.52
2023-05-15T22:27:57.409Z,16.58
2023-05-15T22:31:00.770Z,13.68
2023-05-15T22:34:04.943Z,15.13
2023-05-15T22:37:08.445Z,14.60
2023-05-15T22:40:12.965Z,15.88
2023-05-15T22:43:16.291Z,15.77
2023-05-15T22:46:20.072Z,18.73
2023-05-15T22:49:27.039Z,18.70
2023-05-15T22:52:33.013Z,19.47
2023-05-15T22:55:36.787Z,19.63
2023-05-15T22:58:40.139Z,18.00
2023-05-15T23:01:44.499Z,17.13
2023-05-15T23:04:47.949Z,15.47
2023-05-15T23:07:52.517Z,12.67
2023-05-15T23:10:57.229Z,13.68
2023-05-15T23:14:01.555Z,13.85
2023-05-15T23:17:05.361Z,11.48
2023-05-15T23:20:11.045Z,13.33
2023-05-15T23:23:15.179Z,11.87
2023-05-15T23:26:18.908Z,10.60
2023-05-15T23:29:23.135Z,9.98
2023-05-15T23:32:26.965Z,9.30
2023-05-15T23:35:30.741Z,9.60
2023-05-15T23:38:34.374Z,9.50
2023-05-15T23:41:38.825Z,9.10
2023-05-15T23:44:42.256Z,8.38
2023-05-15T23:47:47.415Z,6.78
2023-05-15T23:50:52.815Z,9.13
2023-05-15T23:53:57.073Z,7.37
2023-05-15T23:57:00.484Z,8.00
